createdAt,value
2018-09-13T00:00:41.117Z,10.48
2018-09-13T00:03:09.526Z,10.28
2018-09-13T00:05:38.048Z,11.10
2018-09-13T00:08:06.447Z,11.10
2018-09-13T00:10:35.053Z,10.60
2018-09-13T00:13:03.426Z,10.60
2018-09-13T00:15:31.867Z,11.48
2018-09-13T00:18:00.127Z,10.10
2018-09-13T00:20:28.515Z,10.28
2018-09-13T00:22:56.993Z,10.28
2018-09-13T00:25:25.204Z,10.50
2018-09-13T00:27:54.378Z,11.00
2018-09-13T00:30:22.531Z,10.77
2018-09-13T00:32:51.044Z,10.50
2018-09-13T00:35:19.452Z,11.40
2018-09-13T00:37:47.856Z,10.70
2018-09-13T00:40:16.359Z,10.72
2018-09-13T00:42:44.852Z,11.20
2018-09-13T00:45:13.334Z,11.38
2018-09-13T00:47:42.527Z,11.08
2018-09-13T00:50:11.045Z,10.75
2018-09-13T00:52:39.381Z,10.90
2018-09-13T00:55:07.983Z,10.70
2018-09-13T00:57:36.707Z,10.70
2018-09-13T01:00:05.401Z,10.40
2018-09-13T01:02:33.924Z,11.03
2018-09-13T01:05:06.287Z,10.58
2018-09-13T01:07:34.775Z,10.63
2018-09-13T01:10:03.611Z,10.70
2018-09-13T01:12:31.873Z,10.20
2018-09-13T01:15:01.439Z,10.20
2018-09-13T01:17:29.700Z,10.70
2018-09-13T01:19:58.220Z,10.28
2018-09-13T01:22:26.608Z,10.05
2018-09-13T01:24:55.784Z,9.47
2018-09-13T01:27:25.140Z,11.00
2018-09-13T01:29:53.330Z,10.48
2018-09-13T01:32:21.870Z,10.30
2018-09-13T01:34:50.230Z,11.00
2018-09-13T01:37:19.214Z,10.70
2018-09-13T01:39:47.646Z,10.70
2018-09-13T01:42:16.052Z,10.48
2018-09-13T01:44:44.478Z,9.90
2018-09-13T01:47:14.912Z,9.95
2018-09-13T01:49:43.312Z,10.18
2018-09-13T01:52:11.684Z,10.53
2018-09-13T01:54:40.189Z,10.90
2018-09-13T01:57:08.633Z,10.60
2018-09-13T01:59:36.915Z,10.20
2018-09-13T02:02:05.292Z,11.68
2018-09-13T02:04:35.843Z,11.60
2018-09-13T02:07:04.233Z,11.45
2018-09-13T02:09:32.652Z,12.33
2018-09-13T02:12:01.056Z,11.00
2018-09-13T02:14:30.689Z,10.75
2018-09-13T02:16:58.956Z,10.68
2018-09-13T02:19:27.365Z,11.00
2018-09-13T02:21:55.811Z,10.35
2018-09-13T02:24:27.768Z,11.50
2018-09-13T02:26:56.044Z,12.18
2018-09-13T02:29:24.350Z,11.90
2018-09-13T02:31:52.742Z,11.68
2018-09-13T02:34:21.038Z,11.75
2018-09-13T02:36:49.285Z,13.20
2018-09-13T02:39:17.561Z,12.40
2018-09-13T02:41:46.008Z,13.03
2018-09-13T02:44:14.583Z,13.38
2018-09-13T02:46:43.013Z,14.00
2018-09-13T02:49:11.495Z,14.23
2018-09-13T02:51:39.933Z,13.05
2018-09-13T02:54:08.441Z,13.37
2018-09-13T02:56:36.844Z,13.38
2018-09-13T02:59:05.229Z,14.00
2018-09-13T03:01:33.652Z,13.20
2018-09-13T03:04:01.717Z,14.03
2018-09-13T03:06:30.025Z,13.98
2018-09-13T03:08:58.423Z,15.13
2018-09-13T03:11:26.701Z,14.83
2018-09-13T03:13:55.728Z,15.25
2018-09-13T03:16:24.157Z,15.90
2018-09-13T03:18:53.371Z,16.32
2018-09-13T03:21:22.697Z,15.83
2018-09-13T03:23:50.969Z,16.67
2018-09-13T03:26:19.346Z,16.35
2018-09-13T03:28:47.862Z,16.90
2018-09-13T03:31:16.242Z,17.95
2018-09-13T03:33:44.767Z,17.55
2018-09-13T03:36:12.979Z,16.48
2018-09-13T03:38:41.267Z,17.47
2018-09-13T03:41:13.364Z,17.70
2018-09-13T03:43:41.685Z,17.07
2018-09-13T03:46:10.040Z,17.85
2018-09-13T03:48:38.457Z,17.87
2018-09-13T03:51:12.270Z,17.07
2018-09-13T03:53:40.684Z,17.17
2018-09-13T03:56:09.025Z,16.97
2018-09-13T03:58:37.107Z,17.20
2018-09-13T04:01:05.662Z,16.70
2018-09-13T04:03:34.179Z,16.27
2018-09-13T04:06:03.162Z,16.20
2018-09-13T04:08:31.799Z,16.60
2018-09-13T04:11:02.445Z,16.90
2018-09-13T04:13:30.836Z,17.02
2018-09-13T04:15:59.185Z,16.75
2018-09-13T04:18:27.726Z,16.37
2018-09-13T04:20:56.014Z,16.27
2018-09-13T04:23:24.438Z,17.77
2018-09-13T04:25:52.745Z,18.12
2018-09-13T04:28:20.971Z,18.90
2018-09-13T04:30:49.355Z,18.07
2018-09-13T04:33:17.839Z,18.35
2018-09-13T04:35:46.290Z,17.52
2018-09-13T04:38:16.885Z,18.12
2018-09-13T04:40:45.186Z,18.37
2018-09-13T04:43:13.791Z,19.73
2018-09-13T04:45:42.215Z,22.98
2018-09-13T04:48:10.672Z,25.75
2018-09-13T04:50:39.193Z,23.57
2018-09-13T04:53:07.602Z,26.27
2018-09-13T04:55:35.861Z,22.82
2018-09-13T04:58:04.478Z,22.90
2018-09-13T05:00:36.452Z,22.30
2018-09-13T05:03:04.811Z,22.00
2018-09-13T05:05:33.067Z,24.35
2018-09-13T05:08:01.453Z,22.67
2018-09-13T05:10:33.008Z,21.27
2018-09-13T05:13:01.538Z,23.12
2018-09-13T05:15:29.916Z,22.02
2018-09-13T05:17:58.338Z,23.00
2018-09-13T05:20:26.724Z,22.02
2018-09-13T05:22:55.055Z,21.83
2018-09-13T05:25:23.422Z,21.10
2018-09-13T05:27:51.812Z,19.70
2018-09-13T05:30:20.226Z,20.97
2018-09-13T05:32:48.623Z,22.15
2018-09-13T05:35:17.023Z,21.17
2018-09-13T05:37:45.639Z,21.70
2018-09-13T05:40:13.935Z,21.23
2018-09-13T05:42:42.439Z,20.52
2018-09-13T05:45:11.228Z,23.35
2018-09-13T05:47:43.299Z,26.23
2018-09-13T05:50:11.626Z,22.80
2018-09-13T05:52:39.940Z,23.43
2018-09-13T05:55:08.404Z,23.47
2018-09-13T05:57:36.528Z,21.50
2018-09-13T06:00:05.428Z,22.23
2018-09-13T06:02:34.032Z,19.27
2018-09-13T06:05:02.408Z,15.70
2018-09-13T06:07:30.613Z,15.32
2018-09-13T06:09:59.096Z,17.07
2018-09-13T06:12:28.028Z,15.25
2018-09-13T06:14:56.328Z,14.70
2018-09-13T06:17:24.623Z,14.13
2018-09-13T06:19:53.788Z,14.30
2018-09-13T06:22:21.935Z,14.85
2018-09-13T06:24:50.205Z,29.85
2018-09-13T06:27:18.545Z,14.20
2018-09-13T06:29:46.919Z,22.10
2018-09-13T06:32:15.221Z,16.48
2018-09-13T06:34:43.520Z,20.15
2018-09-13T06:37:12.635Z,15.78
2018-09-13T06:39:41.164Z,18.25
2018-09-13T06:42:09.553Z,15.30
2018-09-13T06:44:37.942Z,14.78
2018-09-13T06:47:06.123Z,14.90
2018-09-13T06:49:46.005Z,15.32
2018-09-13T06:52:14.290Z,16.05
2018-09-13T06:54:42.705Z,16.60
2018-09-13T06:57:10.993Z,15.90
2018-09-13T06:59:39.287Z,17.27
2018-09-13T07:02:07.765Z,17.60
2018-09-13T07:04:36.194Z,16.35
2018-09-13T07:07:04.870Z,15.93
2018-09-13T07:09:33.320Z,16.90
2018-09-13T07:12:02.756Z,16.30
2018-09-13T07:14:31.339Z,16.50
2018-09-13T07:16:59.817Z,16.20
2018-09-13T07:19:28.433Z,16.62
2018-09-13T07:21:56.715Z,16.73
2018-09-13T07:24:24.825Z,16.50
2018-09-13T07:26:53.135Z,16.82
2018-09-13T07:29:21.395Z,15.70
2018-09-13T07:31:49.918Z,16.85
2018-09-13T07:34:18.370Z,16.90
2018-09-13T07:36:46.882Z,16.30
2018-09-13T07:39:15.568Z,16.67
2018-09-13T07:41:43.905Z,16.45
2018-09-13T07:44:12.227Z,16.17
2018-09-13T07:46:41.100Z,17.20
2018-09-13T07:49:09.714Z,18.23
2018-09-13T07:51:37.944Z,17.80
2018-09-13T07:54:06.435Z,18.12
2018-09-13T07:56:34.692Z,17.90
2018-09-13T07:59:03.001Z,18.65
2018-09-13T08:01:31.107Z,17.90
2018-09-13T08:03:59.531Z,18.05
2018-09-13T08:06:27.790Z,17.75
2018-09-13T08:08:56.225Z,18.20
2018-09-13T08:11:24.699Z,17.55
2018-09-13T08:13:53.008Z,16.67
2018-09-13T08:16:21.512Z,16.10
2018-09-13T08:18:49.821Z,15.88
2018-09-13T08:21:18.209Z,15.65
2018-09-13T08:23:46.498Z,16.40
2018-09-13T08:26:14.886Z,16.00
2018-09-13T08:28:43.302Z,15.65
2018-09-13T08:31:11.704Z,15.90
2018-09-13T08:33:40.200Z,18.70
2018-09-13T08:36:08.521Z,16.20
2018-09-13T08:38:36.912Z,16.60
2018-09-13T08:41:05.323Z,16.25
2018-09-13T08:43:33.818Z,16.00
2018-09-13T08:46:02.181Z,16.20
2018-09-13T08:48:30.505Z,16.50
2018-09-13T08:50:58.914Z,16.45
2018-09-13T08:53:27.185Z,18.93
2018-09-13T08:55:55.719Z,16.55
2018-09-13T08:58:23.889Z,16.67
2018-09-13T09:00:52.392Z,16.77
2018-09-13T09:03:20.792Z,17.57
2018-09-13T09:05:49.209Z,16.85
2018-09-13T09:08:17.373Z,17.27
2018-09-13T09:10:45.759Z,18.10
2018-09-13T09:13:17.392Z,18.00
2018-09-13T09:15:45.768Z,17.45
2018-09-13T09:18:14.147Z,17.70
2018-09-13T09:20:42.560Z,18.63
2018-09-13T09:23:10.948Z,18.40
2018-09-13T09:25:39.354Z,17.90
2018-09-13T09:28:07.757Z,17.42
2018-09-13T09:30:36.383Z,18.25
2018-09-13T09:33:04.758Z,18.05
2018-09-13T09:35:33.070Z,17.40
2018-09-13T09:38:01.368Z,17.92
2018-09-13T09:40:29.778Z,17.50
2018-09-13T09:42:58.241Z,17.92
2018-09-13T09:45:26.668Z,21.52
2018-09-13T09:47:54.832Z,28.07
2018-09-13T09:50:23.090Z,20.08
2018-09-13T09:52:51.661Z,19.53
2018-09-13T09:55:21.883Z,19.30
2018-09-13T09:57:50.378Z,19.20
2018-09-13T10:00:24.238Z,19.77
2018-09-13T10:02:52.628Z,19.23
2018-09-13T10:05:21.072Z,18.92
2018-09-13T10:07:49.950Z,18.80
2018-09-13T10:10:18.192Z,18.75
2018-09-13T10:12:46.335Z,18.55
2018-09-13T10:15:20.158Z,19.50
2018-09-13T10:17:54.062Z,18.62
2018-09-13T10:20:27.942Z,18.15
2018-09-13T10:23:01.750Z,17.93
2018-09-13T10:25:35.265Z,18.40
2018-09-13T10:28:09.014Z,17.37
2018-09-13T10:30:42.583Z,16.70
2018-09-13T10:33:16.652Z,17.62
2018-09-13T10:35:50.206Z,17.70
2018-09-13T10:38:23.921Z,17.10
2018-09-13T10:40:57.776Z,18.17
2018-09-13T10:43:32.219Z,17.45
2018-09-13T10:46:06.000Z,18.48
2018-09-13T10:48:34.524Z,17.32
2018-09-13T10:51:08.455Z,18.25
2018-09-13T10:53:39.115Z,16.80
2018-09-13T10:56:07.967Z,18.17
2018-09-13T10:58:36.409Z,17.40
2018-09-13T11:01:04.459Z,18.25
2018-09-13T11:03:32.973Z,19.55
2018-09-13T11:06:01.427Z,18.77
2018-09-13T11:08:29.735Z,18.77
2018-09-13T11:10:58.942Z,19.05
2018-09-13T11:13:35.221Z,19.40
2018-09-13T11:16:03.764Z,19.23
2018-09-13T11:18:32.066Z,19.48
2018-09-13T11:21:00.300Z,20.08
2018-09-13T11:23:28.338Z,20.50
2018-09-13T11:25:56.752Z,20.05
2018-09-13T11:28:25.146Z,20.62
2018-09-13T11:30:59.175Z,20.95
2018-09-13T11:33:27.782Z,21.50
2018-09-13T11:35:56.418Z,22.10
2018-09-13T11:38:25.392Z,21.85
2018-09-13T11:40:54.200Z,22.37
2018-09-13T11:43:22.276Z,22.10
2018-09-13T11:45:50.670Z,20.97
2018-09-13T11:48:19.116Z,21.50
2018-09-13T11:50:48.219Z,20.23
2018-09-13T11:53:16.723Z,20.40
2018-09-13T11:55:45.506Z,20.85
2018-09-13T11:58:15.063Z,21.17
2018-09-13T12:00:43.705Z,20.15
2018-09-13T12:03:13.061Z,21.10
2018-09-13T12:05:41.578Z,19.65
2018-09-13T12:08:09.878Z,19.73
2018-09-13T12:10:38.174Z,20.05
2018-09-13T12:13:06.718Z,18.98
2018-09-13T12:15:35.176Z,18.05
2018-09-13T12:18:03.645Z,19.30
2018-09-13T12:20:31.877Z,18.67
2018-09-13T12:23:01.394Z,19.70
2018-09-13T12:25:30.106Z,19.52
2018-09-13T12:27:58.410Z,18.80
2018-09-13T12:30:27.732Z,19.32
2018-09-13T12:32:56.250Z,19.07
2018-09-13T12:35:24.589Z,18.65
2018-09-13T12:37:53.025Z,19.07
2018-09-13T12:40:21.419Z,19.12
2018-09-13T12:42:49.815Z,18.40
2018-09-13T12:45:18.141Z,17.98
2018-09-13T12:47:46.428Z,18.30
2018-09-13T12:50:14.733Z,18.62
2018-09-13T12:52:42.808Z,19.48
2018-09-13T12:55:11.120Z,19.20
2018-09-13T12:57:39.758Z,18.48
2018-09-13T13:00:09.509Z,18.62
2018-09-13T13:02:38.089Z,18.82
2018-09-13T13:05:06.530Z,19.65
2018-09-13T13:07:35.117Z,19.13
2018-09-13T13:10:03.771Z,18.60
2018-09-13T13:12:32.266Z,18.48
2018-09-13T13:15:00.662Z,18.27
2018-09-13T13:17:29.169Z,18.52
2018-09-13T13:19:57.660Z,18.75
2018-09-13T13:22:25.955Z,18.98
2018-09-13T13:24:54.242Z,19.15
2018-09-13T13:27:23.321Z,19.30
2018-09-13T13:29:51.769Z,19.50
2018-09-13T13:32:20.255Z,19.60
2018-09-13T13:34:48.563Z,19.92
2018-09-13T13:37:17.177Z,18.87
2018-09-13T13:39:45.562Z,21.45
2018-09-13T13:42:14.076Z,19.60
2018-09-13T13:44:42.598Z,21.42
2018-09-13T13:47:11.206Z,20.80
2018-09-13T13:49:39.796Z,21.05
2018-09-13T13:52:08.397Z,21.35
2018-09-13T13:54:36.812Z,20.50
2018-09-13T13:57:05.360Z,21.05
2018-09-13T13:59:33.712Z,23.10
2018-09-13T14:02:03.126Z,21.48
2018-09-13T14:04:31.560Z,20.30
2018-09-13T14:07:00.023Z,20.70
2018-09-13T14:09:28.612Z,21.60
2018-09-13T14:11:57.002Z,21.15
2018-09-13T14:14:25.586Z,19.80
2018-09-13T14:16:54.064Z,19.30
2018-09-13T14:19:22.762Z,19.98
2018-09-13T14:21:51.435Z,20.45
2018-09-13T14:24:20.126Z,20.92
2018-09-13T14:26:48.529Z,19.73
2018-09-13T14:29:17.755Z,20.35
2018-09-13T14:31:46.001Z,20.40
2018-09-13T14:34:14.255Z,21.05
2018-09-13T14:36:42.868Z,25.97
2018-09-13T14:39:11.680Z,23.32
2018-09-13T14:41:40.192Z,20.67
2018-09-13T14:44:08.664Z,21.12
2018-09-13T14:46:37.469Z,21.15
2018-09-13T14:49:06.325Z,22.07
2018-09-13T14:51:35.217Z,21.68
2018-09-13T14:54:03.810Z,20.40
2018-09-13T14:56:32.127Z,21.05
2018-09-13T14:59:00.581Z,22.25
2018-09-13T15:01:29.120Z,23.60
2018-09-13T15:03:57.612Z,21.57
2018-09-13T15:06:25.902Z,20.77
2018-09-13T15:08:54.420Z,20.10
2018-09-13T15:11:23.460Z,19.57
2018-09-13T15:13:52.547Z,20.40
2018-09-13T15:16:21.053Z,21.90
2018-09-13T15:18:49.486Z,19.50
2018-09-13T15:21:17.950Z,20.50
2018-09-13T15:23:46.869Z,21.40
2018-09-13T15:26:15.569Z,20.68
2018-09-13T15:28:43.953Z,21.17
2018-09-13T15:31:12.439Z,19.52
2018-09-13T15:33:40.854Z,20.30
2018-09-13T15:36:09.190Z,20.40
2018-09-13T15:38:37.479Z,20.90
2018-09-13T15:41:05.849Z,21.40
2018-09-13T15:43:34.219Z,20.52
2018-09-13T15:46:02.764Z,24.70
2018-09-13T15:48:31.254Z,22.70
2018-09-13T15:50:59.747Z,21.23
2018-09-13T15:53:28.169Z,20.70
2018-09-13T15:55:56.521Z,21.93
2018-09-13T15:58:24.878Z,23.90
2018-09-13T16:00:53.353Z,25.62
2018-09-13T16:03:21.739Z,23.80
2018-09-13T16:05:50.263Z,26.97
2018-09-13T16:08:18.762Z,26.00
2018-09-13T16:10:47.158Z,25.80
2018-09-13T16:13:16.474Z,26.55
2018-09-13T16:15:44.887Z,26.20
2018-09-13T16:18:13.257Z,28.15
2018-09-13T16:20:42.014Z,26.05
2018-09-13T16:23:10.493Z,26.45
2018-09-13T16:25:38.867Z,25.70
2018-09-13T16:28:07.243Z,25.63
2018-09-13T16:30:35.730Z,26.77
2018-09-13T16:33:04.311Z,28.05
2018-09-13T16:35:32.572Z,26.17
2018-09-13T16:38:07.796Z,26.57
2018-09-13T16:40:41.889Z,26.55
2018-09-13T16:43:12.150Z,25.80
2018-09-13T16:45:40.711Z,26.15
2018-09-13T16:48:09.214Z,25.23
2018-09-13T16:50:37.752Z,25.30
2018-09-13T16:53:06.218Z,25.32
2018-09-13T16:55:34.492Z,24.57
2018-09-13T16:58:02.882Z,27.42
2018-09-13T17:00:31.181Z,25.02
2018-09-13T17:02:59.421Z,23.97
2018-09-13T17:05:28.121Z,23.60
2018-09-13T17:07:56.615Z,24.57
2018-09-13T17:10:24.985Z,25.02
2018-09-13T17:12:53.423Z,25.17
2018-09-13T17:15:21.921Z,24.90
2018-09-13T17:17:50.187Z,25.40
2018-09-13T17:20:18.724Z,26.15
2018-09-13T17:22:47.084Z,25.72
2018-09-13T17:25:15.412Z,25.08
2018-09-13T17:27:43.854Z,24.87
2018-09-13T17:30:12.012Z,25.15
2018-09-13T17:32:40.492Z,24.60
2018-09-13T17:35:08.721Z,24.75
2018-09-13T17:37:36.889Z,25.72
2018-09-13T17:40:05.398Z,24.67
2018-09-13T17:42:34.089Z,23.50
2018-09-13T17:45:02.621Z,24.90
2018-09-13T17:47:31.491Z,25.68
2018-09-13T17:49:59.937Z,24.30
2018-09-13T17:52:28.313Z,23.20
2018-09-13T17:54:56.803Z,24.27
2018-09-13T17:57:25.197Z,24.50
2018-09-13T17:59:53.599Z,23.50
2018-09-13T18:02:21.918Z,23.10
2018-09-13T18:04:50.210Z,23.75
2018-09-13T18:07:18.700Z,25.68
2018-09-13T18:09:47.141Z,24.60
2018-09-13T18:12:16.021Z,23.25
2018-09-13T18:14:44.327Z,24.15
2018-09-13T18:17:12.974Z,23.87
2018-09-13T18:19:41.658Z,23.50
2018-09-13T18:22:10.241Z,23.02
2018-09-13T18:24:39.048Z,25.95
2018-09-13T18:27:07.797Z,25.90
2018-09-13T18:29:36.368Z,26.02
2018-09-13T18:32:06.269Z,25.80
2018-09-13T18:34:34.797Z,25.80
2018-09-13T18:37:03.296Z,26.27
2018-09-13T18:39:32.106Z,25.30
2018-09-13T18:42:01.401Z,24.60
2018-09-13T18:44:30.136Z,26.70
2018-09-13T18:47:00.175Z,25.88
2018-09-13T18:49:29.535Z,25.55
2018-09-13T18:51:57.874Z,25.52
2018-09-13T18:54:26.920Z,26.27
2018-09-13T18:56:55.314Z,27.10
2018-09-13T18:59:23.937Z,27.00
2018-09-13T19:01:53.632Z,27.45
2018-09-13T19:04:22.033Z,28.35
2018-09-13T19:06:50.814Z,28.20
2018-09-13T19:09:18.764Z,27.93
2018-09-13T19:11:46.820Z,27.30
2018-09-13T19:14:16.497Z,28.07
2018-09-13T19:16:45.198Z,27.50
2018-09-13T19:19:14.821Z,29.00
2018-09-13T19:21:53.176Z,28.77
2018-09-13T19:24:22.082Z,29.30
2018-09-13T19:26:50.738Z,29.02
2018-09-13T19:29:19.325Z,29.35
2018-09-13T19:31:51.239Z,28.30
2018-09-13T19:34:20.037Z,25.55
2018-09-13T19:36:48.893Z,25.68
2018-09-13T19:39:17.626Z,26.17
2018-09-13T19:42:03.417Z,25.48
2018-09-13T19:44:32.788Z,24.85
2018-09-13T19:47:02.434Z,25.77
2018-09-13T19:49:31.436Z,25.10
2018-09-13T19:52:01.272Z,23.50
2018-09-13T19:54:30.222Z,21.50
2018-09-13T19:56:59.668Z,20.90
2018-09-13T19:59:28.431Z,20.90
2018-09-13T20:02:00.869Z,20.52
2018-09-13T20:04:30.023Z,19.10
2018-09-13T20:06:58.562Z,19.23
2018-09-13T20:09:27.199Z,18.15
2018-09-13T20:11:56.220Z,18.85
2018-09-13T20:14:25.389Z,18.25
2018-09-13T20:16:53.895Z,17.20
2018-09-13T20:19:22.757Z,16.85
2018-09-13T20:21:51.754Z,16.50
2018-09-13T20:24:20.424Z,15.93
2018-09-13T20:26:48.924Z,16.30
2018-09-13T20:29:17.216Z,16.12
2018-09-13T20:31:45.657Z,17.30
2018-09-13T20:34:14.010Z,16.30
2018-09-13T20:36:42.542Z,17.57
2018-09-13T20:39:11.236Z,17.40
2018-09-13T20:41:39.640Z,16.80
2018-09-13T20:44:08.310Z,17.77
2018-09-13T20:46:36.576Z,19.45
2018-09-13T20:49:04.840Z,19.27
2018-09-13T20:51:33.331Z,19.12
2018-09-13T20:54:01.826Z,19.70
2018-09-13T20:56:30.229Z,17.45
2018-09-13T20:58:58.646Z,18.52
2018-09-13T21:01:27.021Z,19.42
2018-09-13T21:03:55.637Z,19.35
2018-09-13T21:06:24.133Z,20.57
2018-09-13T21:08:59.674Z,20.08
2018-09-13T21:11:27.830Z,17.80
2018-09-13T21:13:56.710Z,16.57
2018-09-13T21:16:25.094Z,17.40
2018-09-13T21:18:53.709Z,17.87
2018-09-13T21:21:23.038Z,18.82
2018-09-13T21:23:51.549Z,19.40
2018-09-13T21:26:19.826Z,18.37
2018-09-13T21:28:48.854Z,17.90
2018-09-13T21:31:17.197Z,18.20
2018-09-13T21:33:45.651Z,19.15
2018-09-13T21:36:14.244Z,18.55
2018-09-13T21:38:42.660Z,17.20
2018-09-13T21:41:11.208Z,17.55
2018-09-13T21:43:39.421Z,17.60
2018-09-13T21:46:08.767Z,17.43
2018-09-13T21:48:37.062Z,18.23
2018-09-13T21:51:05.560Z,17.52
2018-09-13T21:53:33.935Z,17.95
2018-09-13T21:56:02.338Z,16.53
2018-09-13T21:58:30.965Z,17.52
2018-09-13T22:00:59.489Z,18.95
2018-09-13T22:03:27.874Z,16.97
2018-09-13T22:05:56.469Z,17.90
2018-09-13T22:08:24.876Z,18.42
2018-09-13T22:10:53.164Z,18.50
2018-09-13T22:13:21.751Z,17.50
2018-09-13T22:15:50.144Z,17.77
2018-09-13T22:18:18.580Z,17.30
2018-09-13T22:20:46.852Z,19.17
2018-09-13T22:23:15.475Z,17.92
2018-09-13T22:25:43.870Z,18.20
2018-09-13T22:28:12.176Z,18.12
2018-09-13T22:30:40.646Z,18.98
2018-09-13T22:33:09.080Z,19.82
2018-09-13T22:37:45.096Z,19.92
2018-09-13T22:40:13.708Z,20.97
2018-09-13T22:42:42.547Z,21.70
2018-09-13T22:45:10.708Z,21.05
2018-09-13T22:47:39.134Z,20.97
2018-09-13T22:50:08.634Z,20.55
2018-09-13T22:52:36.746Z,20.52
2018-09-13T22:55:05.100Z,20.80
2018-09-13T22:57:33.661Z,20.00
2018-09-13T23:00:02.226Z,19.70
2018-09-13T23:02:34.987Z,19.32
2018-09-13T23:05:03.441Z,19.60
2018-09-13T23:07:31.823Z,18.98
2018-09-13T23:10:00.900Z,17.77
2018-09-13T23:12:29.455Z,17.35
2018-09-13T23:14:57.754Z,17.87
2018-09-13T23:17:26.298Z,17.75
2018-09-13T23:19:54.550Z,18.50
2018-09-13T23:22:23.870Z,17.87
2018-09-13T23:24:52.242Z,18.48
2018-09-13T23:27:20.774Z,18.48
2018-09-13T23:29:49.068Z,17.95
2018-09-13T23:32:23.197Z,18.07
2018-09-13T23:34:51.697Z,18.60
2018-09-13T23:37:20.092Z,18.62
2018-09-13T23:39:48.979Z,19.02
2018-09-13T23:42:17.205Z,18.55
2018-09-13T23:44:45.735Z,17.23
2018-09-13T23:47:13.885Z,16.90
2018-09-13T23:49:42.421Z,17.27
2018-09-13T23:52:11.007Z,15.72
2018-09-13T23:54:46.539Z,16.15
2018-09-13T23:57:14.855Z,15.55
2018-09-13T23:59:43.367Z,16.20
